createdAt,value
2022-09-28T00:01:25.232Z,98785.50
2022-09-28T00:03:57.468Z,98784.16
2022-09-28T00:06:26.542Z,98782.25
2022-09-28T00:08:54.575Z,98783.81
2022-09-28T00:11:26.626Z,98773.81
2022-09-28T00:13:57.816Z,98766.50
2022-09-28T00:16:31.425Z,98758.94
2022-09-28T00:19:02.098Z,98761.63
2022-09-28T00:21:32.582Z,98761.91
2022-09-28T00:24:14.984Z,98767.00
2022-09-28T00:26:54.123Z,98764.81
2022-09-28T00:29:26.886Z,98758.87
2022-09-28T00:31:59.867Z,98768.63
2022-09-28T00:34:28.353Z,98772.97
2022-09-28T00:36:55.930Z,98771.34
2022-09-28T00:39:27.073Z,98769.75
2022-09-28T00:41:56.039Z,98771.91
2022-09-28T00:44:32.636Z,98777.31
2022-09-28T00:47:21.670Z,98782.72
2022-09-28T00:50:15.724Z,98782.19
2022-09-28T00:53:01.054Z,98779.50
2022-09-28T00:55:53.295Z,98777.12
2022-09-28T00:58:24.803Z,98769.84
2022-09-28T01:00:53.570Z,98768.50
2022-09-28T01:03:22.155Z,98774.16
2022-09-28T01:05:52.626Z,98770.91
2022-09-28T01:08:23.273Z,98778.47
2022-09-28T01:10:53.454Z,98775.19
2022-09-28T01:13:22.631Z,98775.44
2022-09-28T01:16:03.888Z,98785.97
2022-09-28T01:18:40.693Z,98781.37
2022-09-28T01:21:20.739Z,98782.44
2022-09-28T01:24:03.491Z,98782.44
2022-09-28T01:26:31.412Z,98792.47
2022-09-28T01:29:28.274Z,98790.84
2022-09-28T01:32:13.805Z,98797.88
2022-09-28T01:35:05.930Z,98805.94
2022-09-28T01:37:45.761Z,98809.75
2022-09-28T01:40:15.963Z,98792.66
2022-09-28T01:42:46.067Z,98799.41
2022-09-28T01:45:22.671Z,98805.13
2022-09-28T01:47:51.858Z,98809.19
2022-09-28T01:50:23.489Z,98805.94
2022-09-28T01:52:57.182Z,98808.38
2022-09-28T01:55:30.852Z,98815.69
2022-09-28T01:58:04.330Z,98814.59
2022-09-28T02:00:33.555Z,98816.22
2022-09-28T02:03:10.936Z,98811.87
2022-09-28T02:05:41.545Z,98808.34
2022-09-28T02:08:28.412Z,98799.66
2022-09-28T02:11:14.141Z,98801.25
2022-09-28T02:13:51.057Z,98798.53
2022-09-28T02:16:39.136Z,98807.44
2022-09-28T02:19:11.129Z,98799.59
2022-09-28T02:21:47.578Z,98799.59
2022-09-28T02:24:25.371Z,98806.88
2022-09-28T02:26:55.905Z,98801.97
2022-09-28T02:29:24.718Z,98811.19
2022-09-28T02:31:52.977Z,98803.00
2022-09-28T02:34:20.829Z,98810.66
2022-09-28T02:36:48.756Z,98805.75
2022-09-28T02:39:19.076Z,98814.94
2022-09-28T02:41:55.946Z,98811.19
2022-09-28T02:44:47.109Z,98807.38
2022-09-28T02:47:51.902Z,98816.91
2022-09-28T02:50:43.318Z,98812.03
2022-09-28T02:53:26.053Z,98807.69
2022-09-28T02:56:28.933Z,98819.91
2022-09-28T02:59:32.087Z,98818.28
2022-09-28T03:02:08.674Z,98834.56
2022-09-28T03:04:53.135Z,98847.59
2022-09-28T03:07:39.279Z,98842.47
2022-09-28T03:10:14.898Z,98841.69
2022-09-28T03:12:44.394Z,98847.38
2022-09-28T03:15:14.637Z,98848.75
2022-09-28T03:17:42.112Z,98847.12
2022-09-28T03:20:13.502Z,98847.94
2022-09-28T03:22:42.275Z,98848.75
2022-09-28T03:25:10.281Z,98853.09
2022-09-28T03:27:41.571Z,98854.44
2022-09-28T03:30:10.247Z,98851.19
2022-09-28T03:32:39.279Z,98849.84
2022-09-28T03:35:08.842Z,98853.09
2022-09-28T03:37:36.871Z,98847.44
2022-09-28T03:40:05.430Z,98845.56
2022-09-28T03:42:32.921Z,98848.81
2022-09-28T03:45:00.403Z,98847.19
2022-09-28T03:47:27.924Z,98852.63
2022-09-28T03:49:55.448Z,98847.22
2022-09-28T03:52:22.969Z,98856.97
2022-09-28T03:54:51.745Z,98857.53
2022-09-28T03:57:19.237Z,98860.50
2022-09-28T03:59:46.741Z,98858.06
2022-09-28T04:02:14.326Z,98851.81
2022-09-28T04:04:42.953Z,98859.13
2022-09-28T04:07:10.477Z,98857.50
2022-09-28T04:09:37.980Z,98852.66
2022-09-28T04:12:05.610Z,98850.22
2022-09-28T04:14:33.298Z,98848.59
2022-09-28T04:17:00.829Z,98846.16
2022-09-28T04:19:28.627Z,98847.25
2022-09-28T04:21:56.435Z,98849.69
2022-09-28T04:24:25.132Z,98848.59
2022-09-28T04:26:52.639Z,98855.38
2022-09-28T04:29:19.701Z,98844.28
2022-09-28T04:31:51.790Z,98846.69
2022-09-28T04:34:21.694Z,98842.66
2022-09-28T04:36:52.262Z,98844.00
2022-09-28T04:39:20.137Z,98845.62
2022-09-28T04:41:49.657Z,98848.88
2022-09-28T04:44:17.236Z,98847.50
2022-09-28T04:46:47.127Z,98847.78
2022-09-28T04:49:14.953Z,98845.09
2022-09-28T04:51:42.524Z,98845.62
2022-09-28T04:54:10.057Z,98839.12
2022-09-28T04:56:37.800Z,98845.62
2022-09-28T04:59:07.593Z,98839.94
2022-09-28T05:01:35.141Z,98841.03
2022-09-28T05:04:02.765Z,98838.03
2022-09-28T05:06:31.802Z,98843.72
2022-09-28T05:08:59.644Z,98855.91
2022-09-28T05:11:27.247Z,98856.47
2022-09-28T05:13:55.033Z,98852.91
2022-09-28T05:16:22.875Z,98857.78
2022-09-28T05:18:50.381Z,98860.22
2022-09-28T05:21:20.450Z,98857.22
2022-09-28T05:23:51.292Z,98852.59
2022-09-28T05:26:19.266Z,98867.16
2022-09-28T05:28:48.100Z,98863.84
2022-09-28T05:31:15.910Z,98857.06
2022-09-28T05:33:44.316Z,98874.09
2022-09-28T05:36:12.665Z,98874.09
2022-09-28T05:38:40.194Z,98879.50
2022-09-28T05:41:07.792Z,98873.28
2022-09-28T05:43:36.283Z,98882.75
2022-09-28T05:46:03.852Z,98868.72
2022-09-28T05:48:31.647Z,98877.97
2022-09-28T05:50:59.756Z,98866.91
2022-09-28T05:53:27.388Z,98867.47
2022-09-28T05:56:00.188Z,98873.72
2022-09-28T05:58:30.268Z,98863.44
2022-09-28T06:00:59.047Z,98859.94
2022-09-28T06:03:27.687Z,98875.38
2022-09-28T06:05:55.692Z,98875.13
2022-09-28T06:08:23.501Z,98869.19
2022-09-28T06:10:51.055Z,98859.16
2022-09-28T06:13:18.570Z,98865.66
2022-09-28T06:15:48.678Z,98866.19
2022-09-28T06:18:18.479Z,98858.03
2022-09-28T06:20:46.046Z,98862.91
2022-09-28T06:23:14.358Z,98858.53
2022-09-28T06:25:44.371Z,98857.09
2022-09-28T06:28:16.563Z,98861.69
2022-09-28T06:30:45.194Z,98867.34
2022-09-28T06:33:17.425Z,98859.34
2022-09-28T06:35:44.970Z,98867.97
2022-09-28T06:38:12.936Z,98863.03
2022-09-28T06:40:40.555Z,98862.47
2022-09-28T06:43:15.099Z,98864.28
2022-09-28T06:45:43.973Z,98869.53
2022-09-28T06:48:12.313Z,98874.56
2022-09-28T06:50:43.469Z,98880.31
2022-09-28T06:53:14.644Z,98882.63
2022-09-28T06:55:48.357Z,98882.38
2022-09-28T06:58:20.825Z,98868.22
2022-09-28T07:00:53.746Z,98875.13
2022-09-28T07:03:23.374Z,98882.38
2022-09-28T07:05:54.031Z,98892.59
2022-09-28T07:08:24.780Z,98882.25
2022-09-28T07:10:56.289Z,98880.13
2022-09-28T07:13:48.612Z,98874.97
2022-09-28T07:16:17.144Z,98870.97
2022-09-28T07:18:45.033Z,98876.06
2022-09-28T07:21:24.222Z,98868.59
2022-09-28T07:23:56.350Z,98879.59
2022-09-28T07:26:27.293Z,98873.59
2022-09-28T07:28:56.286Z,98878.22
2022-09-28T07:31:26.451Z,98868.78
2022-09-28T07:33:54.128Z,98868.97
2022-09-28T07:36:22.726Z,98869.44
2022-09-28T07:38:50.395Z,98877.38
2022-09-28T07:41:32.125Z,98867.94
2022-09-28T07:44:06.115Z,98871.38
2022-09-28T07:46:35.579Z,98867.16
2022-09-28T07:49:09.744Z,98863.28
2022-09-28T07:51:39.825Z,98875.50
2022-09-28T07:54:09.635Z,98873.59
2022-09-28T07:56:37.205Z,98870.03
2022-09-28T07:59:04.724Z,98879.84
2022-09-28T08:01:33.490Z,98885.41
2022-09-28T08:04:01.170Z,98887.16
2022-09-28T08:06:33.652Z,98882.91
2022-09-28T08:09:01.765Z,98889.94
2022-09-28T08:11:29.391Z,98874.94
2022-09-28T08:14:02.270Z,98879.97
2022-09-28T08:16:32.534Z,98874.47
2022-09-28T08:19:00.414Z,98872.59
2022-09-28T08:21:45.616Z,98852.34
2022-09-28T08:24:18.097Z,98844.28
2022-09-28T08:26:46.039Z,98846.47
2022-09-28T08:29:17.041Z,98839.47
2022-09-28T08:31:44.575Z,98828.38
2022-09-28T08:34:12.216Z,98836.28
2022-09-28T08:36:39.950Z,98840.03
2022-09-28T08:39:07.474Z,98847.34
2022-09-28T08:41:51.523Z,98847.25
2022-09-28T08:44:41.117Z,98862.03
2022-09-28T08:47:37.819Z,98871.22
2022-09-28T08:50:14.216Z,98869.22
2022-09-28T08:52:41.755Z,98870.56
2022-09-28T08:55:23.393Z,98872.72
2022-09-28T08:58:06.516Z,98871.22
2022-09-28T09:00:43.625Z,98873.34
2022-09-28T09:03:23.770Z,98861.06
2022-09-28T09:06:18.647Z,98856.31
2022-09-28T09:09:11.070Z,98847.16
2022-09-28T09:11:48.825Z,98848.66
2022-09-28T09:14:40.908Z,98861.66
2022-09-28T09:17:37.970Z,98850.94
2022-09-28T09:20:38.834Z,98840.72
2022-09-28T09:23:18.793Z,98846.41
2022-09-28T09:25:55.996Z,98858.37
2022-09-28T09:28:36.290Z,98834.50
2022-09-28T09:31:22.754Z,98846.66
2022-09-28T09:34:20.741Z,98841.50
2022-09-28T09:37:25.651Z,98837.44
2022-09-28T09:40:11.914Z,98832.38
2022-09-28T09:43:10.859Z,98824.12
2022-09-28T09:46:16.123Z,98830.53
2022-09-28T09:49:09.253Z,98834.44
2022-09-28T09:51:48.683Z,98837.19
2022-09-28T09:54:39.114Z,98841.72
2022-09-28T09:57:17.505Z,98851.25
2022-09-28T09:59:46.609Z,98840.66
2022-09-28T10:02:37.015Z,98838.78
2022-09-28T10:05:30.610Z,98841.25
2022-09-28T10:08:12.007Z,98844.19
2022-09-28T10:11:12.801Z,98846.00
2022-09-28T10:13:41.139Z,98839.69
2022-09-28T10:16:08.760Z,98848.25
2022-09-28T10:18:37.358Z,98844.56
2022-09-28T10:21:05.409Z,98849.16
2022-09-28T10:23:37.229Z,98856.25
2022-09-28T10:26:12.464Z,98849.47
2022-09-28T10:28:55.389Z,98851.56
2022-09-28T10:31:36.134Z,98846.94
2022-09-28T10:34:06.917Z,98844.13
2022-09-28T10:36:49.934Z,98844.97
2022-09-28T10:39:38.848Z,98840.38
2022-09-28T10:42:10.081Z,98847.34
2022-09-28T10:45:13.097Z,98851.72
2022-09-28T10:47:47.116Z,98847.38
2022-09-28T10:50:26.511Z,98847.78
2022-09-28T10:52:54.397Z,98840.81
2022-09-28T10:55:21.833Z,98841.66
2022-09-28T10:57:52.937Z,98844.22
2022-09-28T11:00:41.189Z,98838.94
2022-09-28T11:03:21.646Z,98835.00
2022-09-28T11:06:08.754Z,98827.44
2022-09-28T11:08:42.718Z,98829.19
2022-09-28T11:11:17.087Z,98820.72
2022-09-28T11:13:52.602Z,98822.38
2022-09-28T11:16:23.219Z,98820.28
2022-09-28T11:18:51.269Z,98810.56
2022-09-28T11:21:23.931Z,98815.22
2022-09-28T11:24:01.306Z,98804.25
2022-09-28T11:26:36.705Z,98805.72
2022-09-28T11:29:04.740Z,98804.91
2022-09-28T11:31:32.685Z,98810.84
2022-09-28T11:34:15.576Z,98807.38
2022-09-28T11:37:18.587Z,98802.56
2022-09-28T11:40:19.000Z,98804.63
2022-09-28T11:42:49.439Z,98801.41
2022-09-28T11:45:54.731Z,98806.22
2022-09-28T11:48:26.630Z,98801.69
2022-09-28T11:51:12.370Z,98802.13
2022-09-28T11:53:46.333Z,98794.03
2022-09-28T11:56:21.440Z,98799.75
2022-09-28T11:58:59.980Z,98790.41
2022-09-28T12:01:27.489Z,98791.69
2022-09-28T12:04:12.720Z,98783.56
2022-09-28T12:06:47.525Z,98775.84
2022-09-28T12:09:47.667Z,98776.47
2022-09-28T12:12:25.441Z,98778.44
2022-09-28T12:14:59.397Z,98754.88
2022-09-28T12:17:42.985Z,98754.25
2022-09-28T12:20:27.976Z,98758.97
2022-09-28T12:23:01.242Z,98755.41
2022-09-28T12:25:34.164Z,98774.25
2022-09-28T12:28:07.509Z,98757.97
2022-09-28T12:30:40.618Z,98750.94
2022-09-28T12:33:17.817Z,98753.50
2022-09-28T12:36:03.596Z,98748.31
2022-09-28T12:39:30.798Z,98740.09
2022-09-28T12:42:01.153Z,98742.56
2022-09-28T12:44:43.677Z,98732.12
2022-09-28T12:47:35.738Z,98728.28
2022-09-28T12:53:03.073Z,98727.87
2022-09-28T12:55:39.859Z,98762.97
2022-09-28T12:58:27.618Z,98736.44
2022-09-28T13:01:17.124Z,98728.87
2022-09-28T13:04:12.771Z,98737.03
2022-09-28T13:06:56.333Z,98740.81
2022-09-28T13:09:40.120Z,98749.78
2022-09-28T13:12:31.986Z,98736.47
2022-09-28T13:15:09.881Z,98735.84
2022-09-28T13:17:41.509Z,98729.31
2022-09-28T13:20:26.167Z,98732.91
2022-09-28T13:23:24.298Z,98724.91
2022-09-28T13:26:11.199Z,98722.34
2022-09-28T13:28:40.865Z,98733.94
2022-09-28T13:31:10.137Z,98731.34
2022-09-28T13:33:41.393Z,98727.28
2022-09-28T13:36:26.863Z,98716.22
2022-09-28T13:38:56.129Z,98724.44
2022-09-28T13:41:40.385Z,98728.63
2022-09-28T13:44:13.900Z,98718.19
2022-09-28T13:46:50.718Z,98708.44
2022-09-28T13:49:48.353Z,98717.56
2022-09-28T13:52:34.629Z,98714.88
2022-09-28T13:55:29.926Z,98721.97
2022-09-28T13:58:04.739Z,98718.72
2022-09-28T14:00:57.808Z,98727.19
2022-09-28T14:03:47.176Z,98728.63
2022-09-28T14:06:23.533Z,98712.41
2022-09-28T14:08:57.940Z,98714.38
2022-09-28T14:11:28.233Z,98715.50
2022-09-28T14:14:03.928Z,98727.59
2022-09-28T14:16:35.901Z,98723.28
2022-09-28T14:19:08.132Z,98717.16
2022-09-28T14:21:47.709Z,98719.56
2022-09-28T14:24:39.389Z,98708.31
2022-09-28T14:27:32.471Z,98710.41
2022-09-28T14:30:09.331Z,98715.09
2022-09-28T14:32:38.795Z,98712.00
2022-09-28T14:35:19.015Z,98704.94
2022-09-28T14:38:13.744Z,98715.28
2022-09-28T14:41:10.667Z,98712.03
2022-09-28T14:43:47.282Z,98707.97
2022-09-28T14:46:14.917Z,98702.84
2022-09-28T14:49:02.892Z,98704.63
2022-09-28T14:51:30.662Z,98700.06
2022-09-28T14:54:04.129Z,98695.91
2022-09-28T14:56:40.025Z,98698.16
2022-09-28T14:59:18.345Z,98690.59
2022-09-28T15:01:54.271Z,98696.22
2022-09-28T15:04:22.423Z,98693.31
2022-09-28T15:06:53.473Z,98690.72
2022-09-28T15:09:39.150Z,98689.44
2022-09-28T15:12:18.595Z,98690.25
2022-09-28T15:15:08.518Z,98687.66
2022-09-28T15:17:40.065Z,98679.28
2022-09-28T15:20:32.396Z,98682.66
2022-09-28T15:23:01.634Z,98676.56
2022-09-28T15:25:31.792Z,98681.53
2022-09-28T15:28:17.508Z,98677.69
2022-09-28T15:30:47.479Z,98678.31
2022-09-28T15:33:47.239Z,98679.78
2022-09-28T15:36:33.635Z,98668.19
2022-09-28T15:39:05.110Z,98665.88
2022-09-28T15:41:33.393Z,98666.38
2022-09-28T15:44:13.318Z,98674.09
2022-09-28T15:46:43.737Z,98672.97
2022-09-28T15:49:23.981Z,98677.66
2022-09-28T15:51:54.772Z,98672.66
2022-09-28T15:54:27.115Z,98689.72
2022-09-28T15:57:00.000Z,98672.81
2022-09-28T15:59:31.814Z,98676.81
2022-09-28T16:02:12.035Z,98673.13
2022-09-28T16:04:50.429Z,98668.13
2022-09-28T16:07:56.075Z,98666.59
2022-09-28T16:10:35.846Z,98673.34
2022-09-28T16:13:17.837Z,98670.94
2022-09-28T16:15:49.627Z,98667.41
2022-09-28T16:18:23.615Z,98674.16
2022-09-28T16:20:57.063Z,98670.44
2022-09-28T16:23:36.614Z,98670.69
2022-09-28T16:26:08.903Z,98665.34
2022-09-28T16:28:39.266Z,98672.13
2022-09-28T16:31:28.289Z,98672.75
2022-09-28T16:34:11.654Z,98665.97
2022-09-28T16:36:45.550Z,98677.34
2022-09-28T16:39:19.703Z,98675.91
2022-09-28T16:41:55.364Z,98672.69
2022-09-28T16:44:27.029Z,98687.66
2022-09-28T16:46:56.880Z,98685.22
2022-09-28T16:49:26.351Z,98685.72
2022-09-28T16:51:54.006Z,98686.03
2022-09-28T16:54:41.879Z,98684.44
2022-09-28T16:57:15.683Z,98684.91
2022-09-28T16:59:43.349Z,98678.47
2022-09-28T17:05:15.896Z,98693.72
2022-09-28T17:07:45.570Z,98688.69
2022-09-28T17:10:21.584Z,98683.53
2022-09-28T17:12:50.252Z,98690.00
2022-09-28T17:15:19.445Z,98687.75
2022-09-28T17:17:48.582Z,98681.00
2022-09-28T17:20:22.514Z,98684.34
2022-09-28T17:22:51.433Z,98681.00
2022-09-28T17:25:19.191Z,98682.19
2022-09-28T17:27:48.791Z,98685.84
2022-09-28T17:30:17.236Z,98687.72
2022-09-28T17:32:47.509Z,98692.63
2022-09-28T17:35:24.988Z,98697.25
2022-09-28T17:37:53.240Z,98697.50
2022-09-28T17:40:23.494Z,98694.75
2022-09-28T17:42:51.023Z,98696.63
2022-09-28T17:45:18.630Z,98688.97
2022-09-28T17:47:46.519Z,98690.31
2022-09-28T17:50:21.853Z,98693.56
2022-09-28T17:52:52.474Z,98690.87
2022-09-28T17:55:24.391Z,98695.41
2022-09-28T17:57:51.978Z,98699.38
2022-09-28T18:00:19.633Z,98703.81
2022-09-28T18:02:48.657Z,98706.78
2022-09-28T18:05:20.462Z,98708.09
2022-09-28T18:07:49.840Z,98720.09
2022-09-28T18:10:30.891Z,98715.84
2022-09-28T18:12:58.496Z,98714.63
2022-09-28T18:15:26.331Z,98717.78
2022-09-28T18:17:53.907Z,98713.72
2022-09-28T18:20:21.524Z,98713.53
2022-09-28T18:22:49.102Z,98708.66
2022-09-28T18:25:16.951Z,98708.25
2022-09-28T18:27:44.658Z,98717.59
2022-09-28T18:30:12.917Z,98716.78
2022-09-28T18:32:40.548Z,98725.78
2022-09-28T18:35:10.210Z,98723.16
2022-09-28T18:37:40.931Z,98721.84
2022-09-28T18:40:10.710Z,98716.56
2022-09-28T18:42:38.357Z,98720.59
2022-09-28T18:45:08.479Z,98729.28
2022-09-28T18:47:36.179Z,98714.72
2022-09-28T18:50:06.306Z,98727.34
2022-09-28T18:52:37.128Z,98729.16
2022-09-28T18:55:06.685Z,98727.25
2022-09-28T18:57:34.522Z,98737.53
2022-09-28T19:00:07.953Z,98729.25
2022-09-28T19:02:36.304Z,98728.16
2022-09-28T19:05:05.695Z,98729.47
2022-09-28T19:07:35.915Z,98730.97
2022-09-28T19:10:04.571Z,98738.31
2022-09-28T19:12:33.637Z,98740.53
2022-09-28T19:15:01.750Z,98733.69
2022-09-28T19:17:31.767Z,98739.34
2022-09-28T19:20:02.677Z,98733.88
2022-09-28T19:22:32.615Z,98726.91
2022-09-28T19:25:00.111Z,98737.31
2022-09-28T19:27:27.678Z,98732.47
2022-09-28T19:29:55.278Z,98730.53
2022-09-28T19:32:22.835Z,98723.75
2022-09-28T19:34:50.362Z,98712.44
2022-09-28T19:37:17.924Z,98734.34
2022-09-28T19:39:45.847Z,98728.69
2022-09-28T19:42:13.390Z,98726.56
2022-09-28T19:44:40.883Z,98723.41
2022-09-28T19:47:12.995Z,98724.72
2022-09-28T19:49:41.625Z,98721.72
2022-09-28T19:52:19.019Z,98735.41
2022-09-28T19:54:52.093Z,98726.00
2022-09-28T19:57:22.640Z,98717.84
2022-09-28T19:59:52.716Z,98725.72
2022-09-28T20:02:22.583Z,98719.69
2022-09-28T20:04:53.529Z,98716.06
2022-09-28T20:07:21.630Z,98716.88
2022-09-28T20:09:49.166Z,98706.56
2022-09-28T20:12:16.813Z,98706.88
2022-09-28T20:14:44.326Z,98707.97
2022-09-28T20:17:11.837Z,98715.84
2022-09-28T20:19:39.331Z,98710.19
2022-09-28T20:22:08.148Z,98705.09
2022-09-28T20:24:35.644Z,98711.13
2022-09-28T20:27:03.142Z,98711.13
2022-09-28T20:29:35.295Z,98711.44
2022-09-28T20:32:04.039Z,98708.41
2022-09-28T20:34:33.466Z,98706.72
2022-09-28T20:37:01.009Z,98705.69
2022-09-28T20:39:31.127Z,98703.47
2022-09-28T20:41:58.704Z,98699.66
2022-09-28T20:44:26.205Z,98697.75
2022-09-28T20:46:53.749Z,98695.25
2022-09-28T20:49:21.679Z,98682.81
2022-09-28T20:51:49.193Z,98692.84
2022-09-28T20:54:18.059Z,98691.22
2022-09-28T20:56:48.256Z,98680.59
2022-09-28T20:59:16.071Z,98686.34
2022-09-28T21:01:43.715Z,98685.53
2022-09-28T21:04:11.867Z,98687.97
2022-09-28T21:06:43.000Z,98683.63
2022-09-28T21:09:13.278Z,98677.88
2022-09-28T21:11:41.621Z,98670.25
2022-09-28T21:14:10.328Z,98682.22
2022-09-28T21:16:38.071Z,98683.88
2022-09-28T21:19:06.078Z,98682.53
2022-09-28T21:21:33.678Z,98675.16
2022-09-28T21:24:02.006Z,98669.72
2022-09-28T21:26:31.163Z,98673.84
2022-09-28T21:29:05.004Z,98672.22
2022-09-28T21:31:38.750Z,98665.78
2022-09-28T21:34:13.187Z,98671.00
2022-09-28T21:36:43.203Z,98670.50
2022-09-28T21:39:10.969Z,98673.81
2022-09-28T21:41:41.226Z,98670.38
2022-09-28T21:44:09.257Z,98675.28
2022-09-28T21:46:39.826Z,98677.78
2022-09-28T21:49:09.123Z,98672.31
2022-09-28T21:51:37.596Z,98666.69
2022-09-28T21:54:05.358Z,98666.97
2022-09-28T21:56:35.347Z,98660.22
2022-09-28T21:59:02.933Z,98652.94
2022-09-28T22:01:31.778Z,98667.66
2022-09-28T22:03:59.716Z,98674.19
2022-09-28T22:06:29.616Z,98679.03
2022-09-28T22:08:57.904Z,98672.50
2022-09-28T22:11:29.483Z,98667.06
2022-09-28T22:13:59.986Z,98670.88
2022-09-28T22:16:30.377Z,98670.59
2022-09-28T22:18:59.241Z,98672.72
2022-09-28T22:21:35.009Z,98671.31
2022-09-28T22:24:05.752Z,98676.97
2022-09-28T22:26:35.443Z,98668.28
2022-09-28T22:29:06.360Z,98661.16
2022-09-28T22:31:37.169Z,98656.53
2022-09-28T22:34:05.246Z,98643.09
2022-09-28T22:36:32.795Z,98655.44
2022-09-28T22:39:00.753Z,98650.50
2022-09-28T22:41:32.096Z,98649.16
2022-09-28T22:44:00.037Z,98648.59
2022-09-28T22:46:31.870Z,98647.78
2022-09-28T22:49:02.330Z,98650.00
2022-09-28T22:51:31.636Z,98644.81
2022-09-28T22:53:59.675Z,98656.47
2022-09-28T22:56:27.250Z,98655.72
2022-09-28T22:58:55.172Z,98660.03
2022-09-28T23:01:31.472Z,98661.91
2022-09-28T23:03:59.448Z,98666.03
2022-09-28T23:06:30.354Z,98660.28
2022-09-28T23:08:58.224Z,98659.19
2022-09-28T23:11:29.293Z,98657.56
2022-09-28T23:14:01.425Z,98654.56
2022-09-28T23:16:30.160Z,98657.28
2022-09-28T23:18:58.379Z,98656.75
2022-09-28T23:21:29.310Z,98656.69
2022-09-28T23:24:01.008Z,98657.69
2022-09-28T23:26:32.970Z,98650.84
2022-09-28T23:29:00.866Z,98650.03
2022-09-28T23:31:31.075Z,98647.81
2022-09-28T23:34:03.107Z,98648.41
2022-09-28T23:36:31.425Z,98649.22
2022-09-28T23:38:59.157Z,98646.81
2022-09-28T23:41:29.127Z,98651.44
2022-09-28T23:43:56.618Z,98657.09
2022-09-28T23:46:24.364Z,98664.66
2022-09-28T23:48:54.111Z,98662.75
2022-09-28T23:51:21.780Z,98652.66
2022-09-28T23:53:49.274Z,98663.25
2022-09-28T23:56:17.033Z,98658.31
2022-09-28T23:58:45.068Z,98655.59
